Список аэропортов
Фактическая погода:

19 августа, 04:20
Температура: +16°C (+15.7*)
Ветер: западный 3 м/с
Давление: *758 мм
неб. 360 м
Время (МСК)Темп. СВетерВлажностьДавлениеОблачностьОсадки
03:00+18З, 3 м/с92%1011 гПаоблачно
04:00+17ЮЗ, 3 м/с96%1011 гПаоблачно
05:00+16ЮЗ, 2 м/с98%1011 гПаоблачно
06:00+16ЮЗ, 2 м/с98%1011 гПаоблачно
07:00+16ЮЗ, 2 м/с97%1012 гПаоблачно
08:00+16ЮЗ, 2 м/с97%1012 гПаоблачно
09:00+17ЮЗ, 2 м/с93%1013 гПаоблачно
10:00+17ЮЗ, 2 м/с88%1013 гПаоблачно
11:00+18ЮЗ, 3 м/с85%1013 гПаоблачно
12:00+18ЮЗ, 5 м/с79%1014 гПаоблачно
13:00+20ЮЗ, 5 м/с56%1014 гПаоблачно
14:00+22ЮЗ, 6 м/с42%1014 гПаясно
15:00+23ЮЗ, 7 м/с35%1015 гПаясно
16:00+24ЮЗ, 7 м/с32%1015 гПаясно
17:00+24ЮЗ, 6 м/с33%1015 гПаясно
18:00+24ЮЗ, 6 м/с34%1015 гПамалооблачно
19:00+24ЮЗ, 6 м/с34%1015 гПамалооблачно
20:00+23ЮЗ, 5 м/с35%1016 гПамалооблачно
21:00+22З, 3 м/с39%1016 гПамалооблачно
22:00+20ЮЗ, 2 м/с50%1017 гПамалооблачно
23:00+18ЮЗ, 2 м/с58%1017 гПамалооблачно
20 августа
00:00+17ЮЗ, 2 м/с65%1018 гПамалооблачно
01:00+16ЮЗ, 2 м/с73%1018 гПамалооблачно
02:00+14ЮЗ, 1 м/с81%1019 гПамалооблачно
03:00+13ЮЗ, 1 м/с90%1019 гПамалооблачно
04:00+13Ю, 1 м/с92%1020 гПас прояснениями
05:00+12ЮВ, 1 м/с94%1020 гПамалооблачно
06:00+13ЮВ, 2 м/с93%1020 гПаоблачно
07:00+12ЮВ, 1 м/с98%1021 гПаоблачно
08:00+12Штиль 99%1021 гПаоблачно
09:00+14Штиль 90%1021 гПас прояснениями
10:00+17Штиль 70%1022 гПас прояснениями
11:00+20ЮВ, 1 м/с55%1022 гПаоблачно
12:00+22ЮВ, 3 м/с44%1022 гПас прояснениями
13:00+24ЮВ, 4 м/с36%1021 гПаоблачно
14:00+24Ю, 4 м/с34%1021 гПаоблачно
15:00+25Ю, 4 м/с33%1021 гПаоблачно
16:00+25ЮВ, 3 м/с33%1020 гПаоблачно
17:00+25ЮВ, 3 м/с32%1019 гПаоблачно
18:00+25ЮВ, 4 м/с32%1019 гПаоблачно
19:00+25ЮВ, 4 м/с34%1019 гПаоблачносл. дождь
20:00+24ЮВ, 5 м/с40%1018 гПаоблачносл. дождь
21:00+23В, 5 м/с44%1018 гПаоблачносл. дождь
22:00+22В, 7 м/с48%1016 гПаоблачносл. дождь
23:00+22В, 5 м/с48%1016 гПаоблачносл. дождь
21 августа
00:00+21В, 6 м/с50%1015 гПаоблачнодождь
01:00+21В, 7 м/с54%1014 гПаоблачнодождь
02:00+20В, 8 м/с57%1012 гПаоблачносл. дождь
03:00+20ЮВ, 4 м/с66%1012 гПаоблачно